createdAt,value
2023-10-25T00:02:39.946Z,99840.88
2023-10-25T00:05:43.914Z,99850.63
2023-10-25T00:08:47.917Z,99855.00
2023-10-25T00:11:51.230Z,99851.03
2023-10-25T00:14:54.692Z,99853.50
2023-10-25T00:17:57.759Z,99863.53
2023-10-25T00:21:00.428Z,99867.19
2023-10-25T00:24:04.687Z,99863.56
2023-10-25T00:27:07.325Z,99868.16
2023-10-25T00:30:11.263Z,99867.31
2023-10-25T00:33:13.955Z,99863.44
2023-10-25T00:36:16.860Z,99867.69
2023-10-25T00:39:20.844Z,99868.28
2023-10-25T00:42:23.509Z,99869.69
2023-10-25T00:45:26.125Z,99866.81
2023-10-25T00:48:30.458Z,99867.81
2023-10-25T00:51:35.534Z,99871.88
2023-10-25T00:54:40.765Z,99873.00
2023-10-25T00:57:43.587Z,99879.59
2023-10-25T01:00:47.042Z,99871.78
2023-10-25T01:03:50.542Z,99878.81
2023-10-25T01:06:54.206Z,99877.88
2023-10-25T01:09:58.227Z,99880.44
2023-10-25T01:13:00.917Z,99878.81
2023-10-25T01:16:03.692Z,99881.22
2023-10-25T01:19:06.522Z,99885.97
2023-10-25T01:22:09.270Z,99878.00
2023-10-25T01:25:15.150Z,99875.75
2023-10-25T01:28:17.860Z,99866.00
2023-10-25T01:31:20.665Z,99859.19
2023-10-25T01:34:23.404Z,99861.28
2023-10-25T01:37:26.082Z,99850.06
2023-10-25T01:40:30.136Z,99847.88
2023-10-25T01:43:32.757Z,99858.50
2023-10-25T01:46:35.478Z,99850.03
2023-10-25T01:49:38.205Z,99853.44
2023-10-25T01:52:40.848Z,99861.00
2023-10-25T01:55:44.848Z,99869.34
2023-10-25T01:58:47.487Z,99868.59
2023-10-25T02:01:50.152Z,99862.69
2023-10-25T02:04:52.843Z,99862.09
2023-10-25T02:07:55.472Z,99861.44
2023-10-25T02:15:21.649Z,99860.88
2023-10-25T02:18:24.358Z,99856.47
2023-10-25T02:21:26.997Z,99860.13
2023-10-25T02:24:29.647Z,99861.22
2023-10-25T02:27:32.306Z,99855.94
2023-10-25T02:30:36.300Z,99856.28
2023-10-25T02:33:39.799Z,99857.06
2023-10-25T02:36:42.505Z,99852.69
2023-10-25T02:39:45.697Z,99852.84
2023-10-25T02:42:48.865Z,99857.47
2023-10-25T02:45:53.856Z,99858.34
2023-10-25T02:48:56.646Z,99867.22
2023-10-25T02:51:59.470Z,99863.31
2023-10-25T02:55:02.413Z,99861.75
2023-10-25T02:58:05.197Z,99859.00
2023-10-25T03:01:09.341Z,99857.22
2023-10-25T03:04:12.177Z,99856.13
2023-10-25T03:07:14.928Z,99851.41
2023-10-25T03:10:17.748Z,99854.72
2023-10-25T03:13:20.531Z,99848.41
2023-10-25T03:16:24.644Z,99860.53
2023-10-25T03:19:30.158Z,99852.06
2023-10-25T03:22:33.251Z,99854.22
2023-10-25T03:25:35.943Z,99852.03
2023-10-25T03:28:40.925Z,99854.22
2023-10-25T03:31:45.936Z,99850.19
2023-10-25T03:34:48.674Z,99851.31
2023-10-25T03:37:51.346Z,99852.09
2023-10-25T03:41:02.081Z,99843.63
2023-10-25T03:44:04.839Z,99856.53
2023-10-25T03:47:08.970Z,99850.03
2023-10-25T03:50:11.678Z,99850.63
2023-10-25T03:53:14.493Z,99846.25
2023-10-25T03:56:17.128Z,99850.78
2023-10-25T03:59:19.751Z,99840.00
2023-10-25T04:02:23.914Z,99845.47
2023-10-25T04:05:27.660Z,99847.13
2023-10-25T04:08:30.320Z,99842.22
2023-10-25T04:11:32.964Z,99844.81
2023-10-25T04:14:35.733Z,99839.00
2023-10-25T04:17:39.744Z,99841.38
2023-10-25T04:20:42.561Z,99852.34
2023-10-25T04:23:45.205Z,99839.25
2023-10-25T04:26:47.912Z,99840.53
2023-10-25T04:29:50.545Z,99834.63
2023-10-25T04:32:54.791Z,99839.66
2023-10-25T04:35:58.047Z,99844.22
2023-10-25T04:39:00.676Z,99844.56
2023-10-25T04:42:03.284Z,99841.56
2023-10-25T04:45:06.624Z,99846.53
2023-10-25T04:48:10.663Z,99837.63
2023-10-25T04:51:15.138Z,99834.22
2023-10-25T04:54:17.795Z,99832.81
2023-10-25T04:57:20.445Z,99834.88
2023-10-25T05:00:23.141Z,99826.91
2023-10-25T05:03:27.216Z,99829.81
2023-10-25T05:06:30.768Z,99821.91
2023-10-25T05:09:34.341Z,99822.59
2023-10-25T05:12:40.809Z,99824.13
2023-10-25T05:15:44.160Z,99821.50
2023-10-25T05:18:49.534Z,99818.41
2023-10-25T05:21:53.273Z,99823.00
2023-10-25T05:24:56.752Z,99816.84
2023-10-25T05:28:01.061Z,99824.38
2023-10-25T05:31:05.831Z,99826.94
2023-10-25T05:34:10.788Z,99827.94
2023-10-25T05:37:13.994Z,99829.06
2023-10-25T05:40:20.025Z,99825.84
2023-10-25T05:43:28.662Z,99832.38
2023-10-25T05:46:31.361Z,99834.69
2023-10-25T05:49:36.146Z,99837.00
2023-10-25T05:52:39.841Z,99833.72
2023-10-25T05:55:43.248Z,99834.72
2023-10-25T05:58:47.139Z,99835.63
2023-10-25T06:01:51.750Z,99836.66
2023-10-25T06:04:58.092Z,99838.38
2023-10-25T06:08:01.373Z,99847.75
2023-10-25T06:11:04.685Z,99848.59
2023-10-25T06:14:08.065Z,99843.81
2023-10-25T06:17:10.816Z,99851.66
2023-10-25T06:20:20.852Z,99844.56
2023-10-25T06:23:23.681Z,99843.38
2023-10-25T06:26:26.457Z,99840.91
2023-10-25T06:29:29.144Z,99843.47
2023-10-25T06:32:31.793Z,99848.69
2023-10-25T06:35:35.811Z,99844.84
2023-10-25T06:38:39.214Z,99854.41
2023-10-25T06:41:42.932Z,99842.72
2023-10-25T06:44:46.055Z,99838.84
2023-10-25T06:47:49.367Z,99837.00
2023-10-25T06:50:54.277Z,99842.41
2023-10-25T06:53:57.762Z,99841.97
2023-10-25T06:57:01.296Z,99841.97
2023-10-25T07:00:07.084Z,99833.59
2023-10-25T07:03:12.687Z,99837.81
2023-10-25T07:06:17.820Z,99838.19
2023-10-25T07:09:20.980Z,99839.75
2023-10-25T07:12:24.862Z,99820.25
2023-10-25T07:15:27.576Z,99823.13
2023-10-25T07:18:30.252Z,99818.84
2023-10-25T07:21:34.244Z,99818.41
2023-10-25T07:24:36.879Z,99826.91
2023-10-25T07:27:39.514Z,99833.66
2023-10-25T07:30:42.304Z,99826.75
2023-10-25T07:33:44.929Z,99824.09
2023-10-25T07:36:48.961Z,99828.91
2023-10-25T07:39:51.619Z,99824.19
2023-10-25T07:42:54.335Z,99817.28
2023-10-25T07:45:57.217Z,99828.03
2023-10-25T07:49:00.028Z,99830.94
2023-10-25T07:52:04.355Z,99831.06
2023-10-25T07:55:36.965Z,99817.44
2023-10-25T07:58:30.466Z,99824.00
2023-10-25T08:01:33.287Z,99819.09
2023-10-25T08:04:36.076Z,99816.16
2023-10-25T08:07:40.068Z,99821.47
2023-10-25T08:10:42.770Z,99813.41
2023-10-25T08:13:45.431Z,99818.69
2023-10-25T08:16:48.097Z,99821.19
2023-10-25T08:19:50.770Z,99828.78
2023-10-25T08:22:54.751Z,99826.28
2023-10-25T08:26:01.558Z,99823.59
2023-10-25T08:29:04.352Z,99822.84
2023-10-25T08:32:07.765Z,99827.78
2023-10-25T08:35:10.870Z,99831.72
2023-10-25T08:38:14.856Z,99824.13
2023-10-25T08:41:19.050Z,99825.56
2023-10-25T08:44:22.185Z,99834.50
2023-10-25T08:47:24.937Z,99841.59
2023-10-25T08:50:27.741Z,99833.81
2023-10-25T08:53:32.282Z,99836.66
2023-10-25T08:56:34.951Z,99843.72
2023-10-25T08:59:44.815Z,99836.19
2023-10-25T09:02:55.238Z,99839.31
2023-10-25T09:06:01.953Z,99843.28
2023-10-25T09:09:08.156Z,99844.00
2023-10-25T09:12:22.138Z,99848.25
2023-10-25T09:15:30.550Z,99841.44
2023-10-25T09:18:33.940Z,99845.66
2023-10-25T09:21:36.832Z,99845.06
2023-10-25T09:24:50.261Z,99835.78
2023-10-25T09:27:52.938Z,99828.88
2023-10-25T09:30:56.463Z,99819.09
2023-10-25T09:34:00.424Z,99817.84
2023-10-25T09:37:04.782Z,99811.47
2023-10-25T09:40:10.167Z,99816.06
2023-10-25T09:43:17.398Z,99812.31
2023-10-25T09:46:21.931Z,99808.56
2023-10-25T09:49:29.876Z,99804.44
2023-10-25T09:52:36.604Z,99807.78
2023-10-25T09:55:47.230Z,99805.66
2023-10-25T09:58:51.871Z,99793.44
2023-10-25T10:01:56.841Z,99802.97
2023-10-25T10:05:03.417Z,99800.06
2023-10-25T10:08:11.036Z,99801.53
2023-10-25T10:11:18.617Z,99790.38
2023-10-25T10:14:29.245Z,99784.22
2023-10-25T10:17:35.536Z,99787.50
2023-10-25T10:20:38.326Z,99790.44
2023-10-25T10:23:42.627Z,99780.13
2023-10-25T10:26:54.592Z,99775.78
2023-10-25T10:29:57.441Z,99781.53
2023-10-25T10:33:00.245Z,99769.38
2023-10-25T10:36:03.458Z,99764.03
2023-10-25T10:39:12.555Z,99764.50
2023-10-25T10:42:21.826Z,99767.38
2023-10-25T10:45:25.066Z,99756.78
2023-10-25T10:48:33.822Z,99754.91
2023-10-25T10:51:37.972Z,99745.28
2023-10-25T10:54:41.336Z,99737.69
2023-10-25T10:58:06.126Z,99735.00
2023-10-25T11:01:08.454Z,99733.28
2023-10-25T11:04:11.209Z,99727.13
2023-10-25T11:07:14.076Z,99726.50
2023-10-25T11:10:17.523Z,99723.41
2023-10-25T11:13:21.552Z,99710.13
2023-10-25T11:16:24.281Z,99714.03
2023-10-25T11:19:26.954Z,99714.16
2023-10-25T11:22:31.946Z,99710.31
2023-10-25T11:25:34.744Z,99714.00
2023-10-25T11:28:40.537Z,99709.84
2023-10-25T11:31:44.478Z,99706.13
2023-10-25T11:34:51.049Z,99705.00
2023-10-25T11:37:54.836Z,99704.56
2023-10-25T11:40:57.533Z,99705.75
2023-10-25T11:44:02.569Z,99701.56
2023-10-25T11:47:06.004Z,99702.06
2023-10-25T11:50:10.310Z,99701.88
2023-10-25T11:53:15.261Z,99699.53
2023-10-25T11:56:22.868Z,99692.97
2023-10-25T11:59:26.906Z,99688.78
2023-10-25T12:02:29.780Z,99689.00
2023-10-25T12:05:32.541Z,99685.66
2023-10-25T12:08:35.234Z,99680.66
2023-10-25T12:11:40.266Z,99686.66
2023-10-25T12:14:45.064Z,99690.56
2023-10-25T12:17:48.099Z,99677.38
2023-10-25T12:20:50.824Z,99671.56
2023-10-25T12:23:53.534Z,99680.13
2023-10-25T12:26:56.261Z,99675.47
2023-10-25T12:30:00.421Z,99673.97
2023-10-25T12:33:03.222Z,99660.53
2023-10-25T12:36:06.592Z,99663.53
2023-10-25T12:39:09.246Z,99659.31
2023-10-25T12:42:11.872Z,99650.47
2023-10-25T12:45:15.936Z,99644.13
2023-10-25T12:48:18.684Z,99639.88
2023-10-25T12:51:21.372Z,99627.44
2023-10-25T12:54:24.064Z,99622.69
2023-10-25T12:57:26.877Z,99612.34
2023-10-25T13:00:30.910Z,99617.16
2023-10-25T13:03:33.585Z,99611.50
2023-10-25T13:06:36.312Z,99608.53
2023-10-25T13:09:39.391Z,99589.78
2023-10-25T13:12:42.489Z,99601.00
2023-10-25T13:15:46.577Z,99589.19
2023-10-25T13:18:49.246Z,99580.00
2023-10-25T13:21:51.919Z,99578.78
2023-10-25T13:24:54.586Z,99574.75
2023-10-25T13:27:57.379Z,99571.75
2023-10-25T13:31:01.430Z,99571.78
2023-10-25T13:34:04.157Z,99571.34
2023-10-25T13:37:07.564Z,99560.66
2023-10-25T13:40:11.682Z,99562.69
2023-10-25T13:43:16.800Z,99554.16
2023-10-25T13:46:20.820Z,99559.59
2023-10-25T13:49:23.483Z,99559.03
2023-10-25T13:52:26.352Z,99553.44
2023-10-25T13:55:29.238Z,99549.44
2023-10-25T13:58:32.557Z,99548.38
2023-10-25T14:01:36.618Z,99552.59
2023-10-25T14:04:39.557Z,99547.41
2023-10-25T14:07:42.684Z,99548.84
2023-10-25T14:10:45.628Z,99534.44
2023-10-25T14:13:51.227Z,99546.53
2023-10-25T14:16:55.252Z,99536.72
2023-10-25T14:19:58.150Z,99535.75
2023-10-25T14:23:00.800Z,99541.31
2023-10-25T14:26:03.936Z,99530.38
2023-10-25T14:29:06.725Z,99529.91
2023-10-25T14:32:10.748Z,99523.28
2023-10-25T14:35:13.559Z,99530.06
2023-10-25T14:38:16.250Z,99526.69
2023-10-25T14:41:18.899Z,99525.84
2023-10-25T14:44:21.544Z,99516.22
2023-10-25T14:47:26.652Z,99520.44
2023-10-25T14:50:29.306Z,99513.31
2023-10-25T14:53:32.235Z,99517.53
2023-10-25T14:56:34.957Z,99514.50
2023-10-25T14:59:37.662Z,99508.41
2023-10-25T15:02:41.773Z,99508.59
2023-10-25T15:05:44.599Z,99505.78
2023-10-25T15:08:47.306Z,99504.50
2023-10-25T15:11:50.034Z,99499.81
2023-10-25T15:14:54.139Z,99500.81
2023-10-25T15:17:58.671Z,99503.38
2023-10-25T15:21:01.572Z,99502.34
2023-10-25T15:24:04.554Z,99499.81
2023-10-25T15:27:07.294Z,99489.72
2023-10-25T15:30:11.024Z,99496.13
2023-10-25T15:33:15.452Z,99491.25
2023-10-25T15:36:18.213Z,99491.84
2023-10-25T15:39:20.895Z,99482.63
2023-10-25T15:42:23.655Z,99485.06
2023-10-25T15:45:26.317Z,99473.44
2023-10-25T15:48:30.487Z,99473.91
2023-10-25T15:51:33.728Z,99469.88
2023-10-25T15:54:36.482Z,99464.31
2023-10-25T15:57:39.124Z,99456.56
2023-10-25T16:00:41.785Z,99459.34
2023-10-25T16:03:45.976Z,99461.66
2023-10-25T16:06:48.742Z,99457.19
2023-10-25T16:09:51.401Z,99459.56
2023-10-25T16:12:54.030Z,99459.75
2023-10-25T16:15:56.737Z,99456.38
2023-10-25T16:19:00.739Z,99448.28
2023-10-25T16:22:03.408Z,99452.72
2023-10-25T16:25:06.948Z,99443.25
2023-10-25T16:28:09.669Z,99452.31
2023-10-25T16:31:12.895Z,99446.66
2023-10-25T16:34:18.764Z,99451.25
2023-10-25T16:37:25.133Z,99439.84
2023-10-25T16:40:29.241Z,99442.88
2023-10-25T16:43:32.794Z,99446.25
2023-10-25T16:46:35.498Z,99442.56
2023-10-25T16:49:39.499Z,99450.53
2023-10-25T16:52:42.136Z,99439.03
2023-10-25T16:55:44.809Z,99439.34
2023-10-25T16:58:47.433Z,99440.94
2023-10-25T17:01:50.138Z,99442.94
2023-10-25T17:04:54.385Z,99434.63
2023-10-25T17:07:57.046Z,99438.34
2023-10-25T17:11:01.458Z,99443.31
2023-10-25T17:14:04.087Z,99432.34
2023-10-25T17:17:06.750Z,99440.25
2023-10-25T17:20:11.711Z,99431.94
2023-10-25T17:23:16.493Z,99422.94
2023-10-25T17:26:19.124Z,99419.97
2023-10-25T17:29:21.901Z,99421.94
2023-10-25T17:32:24.873Z,99419.88
2023-10-25T17:35:29.733Z,99422.19
2023-10-25T17:38:33.859Z,99420.50
2023-10-25T17:41:36.752Z,99418.13
2023-10-25T17:44:39.432Z,99425.78
2023-10-25T17:47:52.127Z,99419.59
2023-10-25T17:50:56.785Z,99418.19
2023-10-25T17:53:59.516Z,99419.59
2023-10-25T17:57:02.203Z,99405.97
2023-10-25T18:00:06.373Z,99404.28
2023-10-25T18:03:09.143Z,99408.16
2023-10-25T18:06:13.200Z,99407.09
2023-10-25T18:09:15.893Z,99402.38
2023-10-25T18:12:18.582Z,99401.28
2023-10-25T18:15:21.376Z,99400.03
2023-10-25T18:18:24.212Z,99397.94
2023-10-25T18:21:28.381Z,99396.22
2023-10-25T18:24:32.806Z,99394.78
2023-10-25T18:27:35.438Z,99389.41
2023-10-25T18:31:57.282Z,99384.66
2023-10-25T18:34:02.800Z,99372.19
2023-10-25T18:37:07.139Z,99372.00
2023-10-25T18:40:10.516Z,99369.44
2023-10-25T18:43:13.704Z,99369.66
2023-10-25T18:46:16.345Z,99367.31
2023-10-25T18:49:19.954Z,99364.16
2023-10-25T18:52:25.252Z,99362.84
2023-10-25T18:55:27.902Z,99360.25
2023-10-25T18:58:30.754Z,99353.19
2023-10-25T19:01:34.146Z,99358.13
2023-10-25T19:06:25.737Z,99353.94
2023-10-25T19:08:26.993Z,99355.28
2023-10-25T19:11:26.003Z,99352.63
2023-10-25T19:14:28.796Z,99353.44
2023-10-25T19:17:31.497Z,99357.28
2023-10-25T19:20:34.190Z,99354.47
2023-10-25T19:23:40.705Z,99353.19
2023-10-25T19:26:48.386Z,99359.22
2023-10-25T19:29:52.059Z,99356.94
2023-10-25T19:32:54.833Z,99353.44
2023-10-25T19:35:57.752Z,99352.03
2023-10-25T19:39:05.865Z,99351.50
2023-10-25T19:42:09.489Z,99356.19
2023-10-25T19:45:14.258Z,99350.50
2023-10-25T19:48:16.975Z,99346.19
2023-10-25T19:51:19.654Z,99346.19
2023-10-25T19:54:23.742Z,99338.19
2023-10-25T19:57:26.434Z,99331.97
2023-10-25T20:00:29.080Z,99331.78
2023-10-25T20:03:32.356Z,99339.28
2023-10-25T20:06:35.259Z,99344.94
2023-10-25T20:09:39.504Z,99339.16
2023-10-25T20:12:42.787Z,99329.81
2023-10-25T20:15:45.406Z,99332.59
2023-10-25T20:18:48.526Z,99329.22
2023-10-25T20:21:51.151Z,99328.56
2023-10-25T20:24:55.921Z,99329.94
2023-10-25T20:27:58.567Z,99323.44
2023-10-25T20:31:04.512Z,99319.63
2023-10-25T20:34:07.248Z,99322.69
2023-10-25T20:37:09.994Z,99319.81
2023-10-25T20:40:14.694Z,99322.53
2023-10-25T20:43:17.418Z,99317.28
2023-10-25T20:46:20.559Z,99310.59
2023-10-25T20:49:24.306Z,99312.81
2023-10-25T20:52:26.938Z,99311.91
2023-10-25T20:55:30.934Z,99313.25
2023-10-25T20:58:33.593Z,99297.75
2023-10-25T21:01:36.261Z,99304.13
2023-10-25T21:04:38.953Z,99308.09
2023-10-25T21:07:41.699Z,99306.59
2023-10-25T21:10:46.526Z,99296.53
2023-10-25T21:13:49.180Z,99291.72
2023-10-25T21:16:51.815Z,99294.97
2023-10-25T21:19:54.606Z,99289.59
2023-10-25T21:22:57.260Z,99289.13
2023-10-25T21:26:07.445Z,99286.19
2023-10-25T21:29:11.154Z,99285.84
2023-10-25T21:32:13.853Z,99286.25
2023-10-25T21:35:16.772Z,99281.19
2023-10-25T21:38:19.399Z,99282.88
2023-10-25T21:41:23.402Z,99277.63
2023-10-25T21:44:26.072Z,99277.78
2023-10-25T21:47:28.786Z,99276.38
2023-10-25T21:50:31.520Z,99267.50
2023-10-25T21:53:34.761Z,99266.66
2023-10-25T21:56:38.901Z,99263.75
2023-10-25T21:59:51.530Z,99268.84
2023-10-25T22:02:57.146Z,99262.84
2023-10-25T22:05:59.879Z,99261.59
2023-10-25T22:09:02.736Z,99256.72
2023-10-25T22:12:07.575Z,99247.91
2023-10-25T22:15:11.042Z,99249.66
2023-10-25T22:18:13.838Z,99249.81
2023-10-25T22:21:16.568Z,99238.41
2023-10-25T22:24:19.388Z,99246.63
2023-10-25T22:27:23.946Z,99245.66
2023-10-25T22:30:26.666Z,99242.34
2023-10-25T22:33:29.421Z,99241.13
2023-10-25T22:36:32.157Z,99244.28
2023-10-25T22:39:34.829Z,99247.88
2023-10-25T22:42:38.958Z,99249.34
2023-10-25T22:45:41.600Z,99248.03
2023-10-25T22:48:44.427Z,99245.13
2023-10-25T22:51:47.614Z,99241.66
2023-10-25T22:54:50.315Z,99234.66
2023-10-25T22:57:54.379Z,99230.66
2023-10-25T23:00:57.049Z,99233.41
2023-10-25T23:03:59.833Z,99226.25
2023-10-25T23:07:02.578Z,99235.50
2023-10-25T23:10:06.477Z,99227.56
2023-10-25T23:13:10.538Z,99228.22
2023-10-25T23:16:13.850Z,99229.34
2023-10-25T23:19:16.625Z,99225.94
2023-10-25T23:22:20.734Z,99220.28
2023-10-25T23:25:23.464Z,99227.53
2023-10-25T23:28:27.453Z,99226.38
2023-10-25T23:31:30.176Z,99226.22
2023-10-25T23:34:32.936Z,99225.84
2023-10-25T23:37:35.673Z,99212.19
2023-10-25T23:40:38.340Z,99218.00
2023-10-25T23:43:42.363Z,99218.56
2023-10-25T23:46:45.033Z,99221.06
2023-10-25T23:49:47.651Z,99214.50
2023-10-25T23:52:50.312Z,99213.69
2023-10-25T23:55:52.965Z,99220.66
2023-10-25T23:58:56.986Z,99214.69
